sensor_id;sensor_type;location;lat;lon;timestamp;temperature;humidity
53748;DHT22;39655;53.210;5.768;2024-02-21T00:01:42;9.00;97.70
53748;DHT22;39655;53.210;5.768;2024-02-21T00:04:08;8.90;97.60
53748;DHT22;39655;53.210;5.768;2024-02-21T00:06:34;8.90;97.50
53748;DHT22;39655;53.210;5.768;2024-02-21T00:08:59;8.90;97.40
53748;DHT22;39655;53.210;5.768;2024-02-21T00:11:25;8.90;97.70
53748;DHT22;39655;53.210;5.768;2024-02-21T00:13:50;9.00;97.70
53748;DHT22;39655;53.210;5.768;2024-02-21T00:16:16;8.90;97.60
53748;DHT22;39655;53.210;5.768;2024-02-21T00:18:43;8.90;97.60
53748;DHT22;39655;53.210;5.768;2024-02-21T00:21:11;8.90;97.60
53748;DHT22;39655;53.210;5.768;2024-02-21T00:23:46;8.90;97.60
53748;DHT22;39655;53.210;5.768;2024-02-21T00:26:12;9.00;97.60
53748;DHT22;39655;53.210;5.768;2024-02-21T00:28:39;8.90;97.50
53748;DHT22;39655;53.210;5.768;2024-02-21T00:31:04;8.90;97.50
53748;DHT22;39655;53.210;5.768;2024-02-21T00:33:30;8.90;97.60
53748;DHT22;39655;53.210;5.768;2024-02-21T00:35:56;8.90;97.60
53748;DHT22;39655;53.210;5.768;2024-02-21T00:38:22;8.90;97.50
53748;DHT22;39655;53.210;5.768;2024-02-21T00:40:47;8.90;97.60
53748;DHT22;39655;53.210;5.768;2024-02-21T00:43:13;8.90;97.60
53748;DHT22;39655;53.210;5.768;2024-02-21T00:45:39;8.90;97.60
53748;DHT22;39655;53.210;5.768;2024-02-21T00:48:05;8.90;97.50
53748;DHT22;39655;53.210;5.768;2024-02-21T00:50:30;8.90;97.50
53748;DHT22;39655;53.210;5.768;2024-02-21T00:52:56;8.90;97.70
53748;DHT22;39655;53.210;5.768;2024-02-21T00:55:22;8.80;97.80
53748;DHT22;39655;53.210;5.768;2024-02-21T00:57:47;8.80;97.70
53748;DHT22;39655;53.210;5.768;2024-02-21T01:00:13;8.80;97.80
53748;DHT22;39655;53.210;5.768;2024-02-21T01:02:39;8.80;98.00
53748;DHT22;39655;53.210;5.768;2024-02-21T01:05:05;8.80;98.00
53748;DHT22;39655;53.210;5.768;2024-02-21T01:07:31;8.80;98.00
53748;DHT22;39655;53.210;5.768;2024-02-21T01:09:56;8.80;98.00
53748;DHT22;39655;53.210;5.768;2024-02-21T01:12:22;8.80;98.00
53748;DHT22;39655;53.210;5.768;2024-02-21T01:14:48;8.90;98.10
53748;DHT22;39655;53.210;5.768;2024-02-21T01:17:14;8.90;98.10
53748;DHT22;39655;53.210;5.768;2024-02-21T01:19:41;9.00;97.80
53748;DHT22;39655;53.210;5.768;2024-02-21T01:22:06;9.00;97.70
53748;DHT22;39655;53.210;5.768;2024-02-21T01:24:32;8.90;97.80
53748;DHT22;39655;53.210;5.768;2024-02-21T01:26:58;8.90;97.70
53748;DHT22;39655;53.210;5.768;2024-02-21T01:29:24;8.90;97.80
53748;DHT22;39655;53.210;5.768;2024-02-21T01:31:49;8.90;97.80
53748;DHT22;39655;53.210;5.768;2024-02-21T01:34:15;8.90;97.70
53748;DHT22;39655;53.210;5.768;2024-02-21T01:36:41;8.90;97.60
53748;DHT22;39655;53.210;5.768;2024-02-21T01:39:07;8.90;97.70
53748;DHT22;39655;53.210;5.768;2024-02-21T01:41:33;8.90;97.60
53748;DHT22;39655;53.210;5.768;2024-02-21T01:43:59;8.90;97.60
53748;DHT22;39655;53.210;5.768;2024-02-21T01:46:24;8.90;97.50
53748;DHT22;39655;53.210;5.768;2024-02-21T01:48:57;8.90;97.50
53748;DHT22;39655;53.210;5.768;2024-02-21T01:51:26;8.90;97.50
53748;DHT22;39655;53.210;5.768;2024-02-21T01:53:53;9.00;97.40
53748;DHT22;39655;53.210;5.768;2024-02-21T01:56:20;9.00;97.40
53748;DHT22;39655;53.210;5.768;2024-02-21T01:58:48;8.90;97.30
53748;DHT22;39655;53.210;5.768;2024-02-21T02:01:14;9.00;97.30
53748;DHT22;39655;53.210;5.768;2024-02-21T02:03:40;9.00;97.10
53748;DHT22;39655;53.210;5.768;2024-02-21T02:06:06;9.00;97.00
53748;DHT22;39655;53.210;5.768;2024-02-21T02:08:32;9.00;97.00
53748;DHT22;39655;53.210;5.768;2024-02-21T02:10:59;8.90;97.20
53748;DHT22;39655;53.210;5.768;2024-02-21T02:13:25;8.90;97.20
53748;DHT22;39655;53.210;5.768;2024-02-21T02:15:50;8.90;97.10
53748;DHT22;39655;53.210;5.768;2024-02-21T02:18:18;8.90;97.20
53748;DHT22;39655;53.210;5.768;2024-02-21T02:20:44;8.90;97.10
53748;DHT22;39655;53.210;5.768;2024-02-21T02:23:12;8.90;97.20
53748;DHT22;39655;53.210;5.768;2024-02-21T02:25:38;9.00;97.10
53748;DHT22;39655;53.210;5.768;2024-02-21T02:28:07;9.00;96.90
53748;DHT22;39655;53.210;5.768;2024-02-21T02:30:34;9.00;96.90
53748;DHT22;39655;53.210;5.768;2024-02-21T02:33:02;9.00;96.70
53748;DHT22;39655;53.210;5.768;2024-02-21T02:35:27;9.00;96.50
53748;DHT22;39655;53.210;5.768;2024-02-21T02:37:53;9.00;96.20
53748;DHT22;39655;53.210;5.768;2024-02-21T02:40:19;9.00;96.10
53748;DHT22;39655;53.210;5.768;2024-02-21T02:42:45;9.00;96.10
53748;DHT22;39655;53.210;5.768;2024-02-21T02:45:11;9.00;96.20
53748;DHT22;39655;53.210;5.768;2024-02-21T02:47:36;8.90;96.20
53748;DHT22;39655;53.210;5.768;2024-02-21T02:50:03;8.90;96.20
53748;DHT22;39655;53.210;5.768;2024-02-21T02:52:28;8.80;96.40
53748;DHT22;39655;53.210;5.768;2024-02-21T02:54:54;8.90;96.30
53748;DHT22;39655;53.210;5.768;2024-02-21T02:57:21;8.90;96.10
53748;DHT22;39655;53.210;5.768;2024-02-21T02:59:48;8.80;96.20
53748;DHT22;39655;53.210;5.768;2024-02-21T03:02:14;8.80;96.30
53748;DHT22;39655;53.210;5.768;2024-02-21T03:04:40;8.90;96.10
53748;DHT22;39655;53.210;5.768;2024-02-21T03:07:06;8.90;96.10
53748;DHT22;39655;53.210;5.768;2024-02-21T03:09:32;8.90;96.10
53748;DHT22;39655;53.210;5.768;2024-02-21T03:11:57;8.90;96.10
53748;DHT22;39655;53.210;5.768;2024-02-21T03:14:33;8.90;96.00
53748;DHT22;39655;53.210;5.768;2024-02-21T03:17:00;8.90;96.10
53748;DHT22;39655;53.210;5.768;2024-02-21T03:19:25;8.90;96.30
53748;DHT22;39655;53.210;5.768;2024-02-21T03:21:51;8.90;96.30
53748;DHT22;39655;53.210;5.768;2024-02-21T03:24:18;9.00;96.20
53748;DHT22;39655;53.210;5.768;2024-02-21T03:26:44;9.00;96.00
53748;DHT22;39655;53.210;5.768;2024-02-21T03:29:10;9.00;96.00
53748;DHT22;39655;53.210;5.768;2024-02-21T03:31:37;9.10;96.00
53748;DHT22;39655;53.210;5.768;2024-02-21T03:34:03;9.00;95.90
53748;DHT22;39655;53.210;5.768;2024-02-21T03:36:28;9.00;95.90
53748;DHT22;39655;53.210;5.768;2024-02-21T03:38:55;9.10;95.90
53748;DHT22;39655;53.210;5.768;2024-02-21T03:41:20;9.10;95.80
53748;DHT22;39655;53.210;5.768;2024-02-21T03:43:46;9.00;95.80
53748;DHT22;39655;53.210;5.768;2024-02-21T03:46:12;9.10;95.70
53748;DHT22;39655;53.210;5.768;2024-02-21T03:48:37;9.10;95.80
53748;DHT22;39655;53.210;5.768;2024-02-21T03:51:03;9.00;95.80
53748;DHT22;39655;53.210;5.768;2024-02-21T03:53:30;9.00;95.90
53748;DHT22;39655;53.210;5.768;2024-02-21T03:55:55;9.00;96.00
53748;DHT22;39655;53.210;5.768;2024-02-21T03:58:21;9.00;95.80
53748;DHT22;39655;53.210;5.768;2024-02-21T04:00:47;9.00;95.80
53748;DHT22;39655;53.210;5.768;2024-02-21T04:03:13;9.10;95.80
53748;DHT22;39655;53.210;5.768;2024-02-21T04:05:39;9.00;95.70
53748;DHT22;39655;53.210;5.768;2024-02-21T04:08:05;9.00;95.80
53748;DHT22;39655;53.210;5.768;2024-02-21T04:10:31;9.10;95.70
53748;DHT22;39655;53.210;5.768;2024-02-21T04:12:57;9.10;95.60
53748;DHT22;39655;53.210;5.768;2024-02-21T04:15:23;9.10;95.70
53748;DHT22;39655;53.210;5.768;2024-02-21T04:17:48;9.00;95.60
53748;DHT22;39655;53.210;5.768;2024-02-21T04:20:15;9.00;95.60
53748;DHT22;39655;53.210;5.768;2024-02-21T04:22:43;9.00;95.60
53748;DHT22;39655;53.210;5.768;2024-02-21T04:25:10;9.00;95.70
53748;DHT22;39655;53.210;5.768;2024-02-21T04:27:37;8.90;95.70
53748;DHT22;39655;53.210;5.768;2024-02-21T04:30:03;8.90;95.90
53748;DHT22;39655;53.210;5.768;2024-02-21T04:32:29;9.00;95.90
53748;DHT22;39655;53.210;5.768;2024-02-21T04:34:55;8.90;95.90
53748;DHT22;39655;53.210;5.768;2024-02-21T04:37:21;8.90;95.90
53748;DHT22;39655;53.210;5.768;2024-02-21T04:39:48;8.90;96.10
53748;DHT22;39655;53.210;5.768;2024-02-21T04:42:14;8.80;96.00
53748;DHT22;39655;53.210;5.768;2024-02-21T04:44:40;8.80;96.10
53748;DHT22;39655;53.210;5.768;2024-02-21T04:47:06;8.90;96.20
53748;DHT22;39655;53.210;5.768;2024-02-21T04:49:32;8.90;96.00
53748;DHT22;39655;53.210;5.768;2024-02-21T04:51:57;8.90;95.90
53748;DHT22;39655;53.210;5.768;2024-02-21T04:54:23;8.90;96.00
53748;DHT22;39655;53.210;5.768;2024-02-21T04:56:49;8.90;95.90
53748;DHT22;39655;53.210;5.768;2024-02-21T04:59:14;8.90;95.90
53748;DHT22;39655;53.210;5.768;2024-02-21T05:01:40;8.90;96.00
53748;DHT22;39655;53.210;5.768;2024-02-21T05:04:05;8.90;96.20
53748;DHT22;39655;53.210;5.768;2024-02-21T05:06:31;8.90;96.10
53748;DHT22;39655;53.210;5.768;2024-02-21T05:08:57;8.90;96.00
53748;DHT22;39655;53.210;5.768;2024-02-21T05:11:24;8.90;96.10
53748;DHT22;39655;53.210;5.768;2024-02-21T05:13:50;8.90;96.00
53748;DHT22;39655;53.210;5.768;2024-02-21T05:16:16;8.80;96.10
53748;DHT22;39655;53.210;5.768;2024-02-21T05:18:41;8.80;96.30
53748;DHT22;39655;53.210;5.768;2024-02-21T05:21:08;8.80;96.20
53748;DHT22;39655;53.210;5.768;2024-02-21T05:23:33;8.70;96.30
53748;DHT22;39655;53.210;5.768;2024-02-21T05:25:59;8.70;96.40
53748;DHT22;39655;53.210;5.768;2024-02-21T05:28:25;8.70;96.40
53748;DHT22;39655;53.210;5.768;2024-02-21T05:30:50;8.70;96.50
53748;DHT22;39655;53.210;5.768;2024-02-21T05:33:16;8.70;96.50
53748;DHT22;39655;53.210;5.768;2024-02-21T05:35:47;8.70;96.50
53748;DHT22;39655;53.210;5.768;2024-02-21T05:38:16;8.70;96.60
53748;DHT22;39655;53.210;5.768;2024-02-21T05:40:42;8.70;96.60
53748;DHT22;39655;53.210;5.768;2024-02-21T05:43:08;8.70;96.70
53748;DHT22;39655;53.210;5.768;2024-02-21T05:45:34;8.70;96.70
53748;DHT22;39655;53.210;5.768;2024-02-21T05:48:00;8.70;96.70
53748;DHT22;39655;53.210;5.768;2024-02-21T05:50:26;8.70;96.80
53748;DHT22;39655;53.210;5.768;2024-02-21T05:52:54;8.70;96.80
53748;DHT22;39655;53.210;5.768;2024-02-21T05:55:21;8.60;96.80
53748;DHT22;39655;53.210;5.768;2024-02-21T05:57:46;8.60;96.90
53748;DHT22;39655;53.210;5.768;2024-02-21T06:00:13;8.60;96.90
53748;DHT22;39655;53.210;5.768;2024-02-21T06:02:39;8.60;96.90
53748;DHT22;39655;53.210;5.768;2024-02-21T06:05:06;8.60;96.90
53748;DHT22;39655;53.210;5.768;2024-02-21T06:07:33;8.70;97.00
53748;DHT22;39655;53.210;5.768;2024-02-21T06:10:00;8.60;96.90
53748;DHT22;39655;53.210;5.768;2024-02-21T06:12:25;8.60;97.00
53748;DHT22;39655;53.210;5.768;2024-02-21T06:14:51;8.60;97.00
53748;DHT22;39655;53.210;5.768;2024-02-21T06:17:19;8.50;97.00
53748;DHT22;39655;53.210;5.768;2024-02-21T06:19:45;8.50;97.00
53748;DHT22;39655;53.210;5.768;2024-02-21T06:22:11;8.50;97.10
53748;DHT22;39655;53.210;5.768;2024-02-21T06:24:37;8.60;97.10
53748;DHT22;39655;53.210;5.768;2024-02-21T06:27:04;8.60;97.20
53748;DHT22;39655;53.210;5.768;2024-02-21T06:29:31;8.60;97.20
53748;DHT22;39655;53.210;5.768;2024-02-21T06:31:57;8.50;97.20
53748;DHT22;39655;53.210;5.768;2024-02-21T06:34:23;8.60;97.20
53748;DHT22;39655;53.210;5.768;2024-02-21T06:36:50;8.60;97.20
53748;DHT22;39655;53.210;5.768;2024-02-21T06:39:16;8.60;97.20
53748;DHT22;39655;53.210;5.768;2024-02-21T06:41:41;8.60;97.30
53748;DHT22;39655;53.210;5.768;2024-02-21T06:44:07;8.60;97.30
53748;DHT22;39655;53.210;5.768;2024-02-21T06:46:33;8.60;97.30
53748;DHT22;39655;53.210;5.768;2024-02-21T06:48:59;8.60;97.30
53748;DHT22;39655;53.210;5.768;2024-02-21T06:51:26;8.60;97.30
53748;DHT22;39655;53.210;5.768;2024-02-21T06:53:52;8.60;97.30
53748;DHT22;39655;53.210;5.768;2024-02-21T06:56:18;8.60;97.30
53748;DHT22;39655;53.210;5.768;2024-02-21T06:58:43;8.70;97.30
53748;DHT22;39655;53.210;5.768;2024-02-21T07:01:10;8.70;97.20
53748;DHT22;39655;53.210;5.768;2024-02-21T07:03:36;8.70;97.20
53748;DHT22;39655;53.210;5.768;2024-02-21T07:06:02;8.70;97.30
53748;DHT22;39655;53.210;5.768;2024-02-21T07:08:28;8.70;97.30
53748;DHT22;39655;53.210;5.768;2024-02-21T07:10:56;8.70;97.30
53748;DHT22;39655;53.210;5.768;2024-02-21T07:13:23;8.70;97.30
53748;DHT22;39655;53.210;5.768;2024-02-21T07:15:49;8.60;97.30
53748;DHT22;39655;53.210;5.768;2024-02-21T07:18:14;8.70;97.40
53748;DHT22;39655;53.210;5.768;2024-02-21T07:20:40;8.70;97.40
53748;DHT22;39655;53.210;5.768;2024-02-21T07:23:08;8.70;97.40
53748;DHT22;39655;53.210;5.768;2024-02-21T07:25:33;8.70;97.50
53748;DHT22;39655;53.210;5.768;2024-02-21T07:27:59;8.80;97.50
53748;DHT22;39655;53.210;5.768;2024-02-21T07:30:24;8.80;97.40
53748;DHT22;39655;53.210;5.768;2024-02-21T07:32:53;8.80;97.50
53748;DHT22;39655;53.210;5.768;2024-02-21T07:35:19;8.80;97.50
53748;DHT22;39655;53.210;5.768;2024-02-21T07:37:45;8.80;97.50
53748;DHT22;39655;53.210;5.768;2024-02-21T07:40:15;8.80;97.50
53748;DHT22;39655;53.210;5.768;2024-02-21T07:42:41;8.80;97.50
53748;DHT22;39655;53.210;5.768;2024-02-21T07:45:08;8.80;97.50
53748;DHT22;39655;53.210;5.768;2024-02-21T07:47:34;8.80;97.50
53748;DHT22;39655;53.210;5.768;2024-02-21T07:50:01;8.80;97.50
53748;DHT22;39655;53.210;5.768;2024-02-21T07:52:28;8.90;97.60
53748;DHT22;39655;53.210;5.768;2024-02-21T07:54:53;8.80;97.50
53748;DHT22;39655;53.210;5.768;2024-02-21T07:57:19;8.90;97.70
53748;DHT22;39655;53.210;5.768;2024-02-21T07:59:45;8.90;97.60
53748;DHT22;39655;53.210;5.768;2024-02-21T08:02:14;8.90;97.60
53748;DHT22;39655;53.210;5.768;2024-02-21T08:04:39;8.80;97.60
53748;DHT22;39655;53.210;5.768;2024-02-21T08:07:05;8.90;97.60
53748;DHT22;39655;53.210;5.768;2024-02-21T08:09:31;8.90;97.70
53748;DHT22;39655;53.210;5.768;2024-02-21T08:11:56;8.80;97.60
53748;DHT22;39655;53.210;5.768;2024-02-21T08:14:22;8.80;97.60
53748;DHT22;39655;53.210;5.768;2024-02-21T08:16:50;8.90;97.60
53748;DHT22;39655;53.210;5.768;2024-02-21T08:19:18;8.80;97.80
53748;DHT22;39655;53.210;5.768;2024-02-21T08:21:44;8.80;97.70
53748;DHT22;39655;53.210;5.768;2024-02-21T08:24:15;8.80;97.80
53748;DHT22;39655;53.210;5.768;2024-02-21T08:26:41;8.90;97.80
53748;DHT22;39655;53.210;5.768;2024-02-21T08:29:07;8.90;97.80
53748;DHT22;39655;53.210;5.768;2024-02-21T08:31:33;8.90;97.80
53748;DHT22;39655;53.210;5.768;2024-02-21T08:34:00;8.90;97.80
53748;DHT22;39655;53.210;5.768;2024-02-21T08:36:38;8.90;97.70
53748;DHT22;39655;53.210;5.768;2024-02-21T08:39:04;8.90;97.80
53748;DHT22;39655;53.210;5.768;2024-02-21T08:41:34;8.90;97.80
53748;DHT22;39655;53.210;5.768;2024-02-21T08:44:00;9.00;97.80
53748;DHT22;39655;53.210;5.768;2024-02-21T08:46:26;9.00;97.80
53748;DHT22;39655;53.210;5.768;2024-02-21T08:48:52;9.00;97.80
53748;DHT22;39655;53.210;5.768;2024-02-21T08:51:18;9.10;97.70
53748;DHT22;39655;53.210;5.768;2024-02-21T08:53:45;9.10;97.70
53748;DHT22;39655;53.210;5.768;2024-02-21T08:56:11;9.10;97.60
53748;DHT22;39655;53.210;5.768;2024-02-21T08:58:38;9.10;97.50
53748;DHT22;39655;53.210;5.768;2024-02-21T09:01:04;9.20;97.50
53748;DHT22;39655;53.210;5.768;2024-02-21T09:03:34;9.20;97.40
53748;DHT22;39655;53.210;5.768;2024-02-21T09:06:02;9.20;97.50
53748;DHT22;39655;53.210;5.768;2024-02-21T09:08:28;9.20;97.40
53748;DHT22;39655;53.210;5.768;2024-02-21T09:10:53;9.30;97.40
53748;DHT22;39655;53.210;5.768;2024-02-21T09:13:22;9.30;97.30
53748;DHT22;39655;53.210;5.768;2024-02-21T09:15:49;9.30;97.00
53748;DHT22;39655;53.210;5.768;2024-02-21T09:18:15;9.30;96.90
53748;DHT22;39655;53.210;5.768;2024-02-21T09:20:41;9.30;96.70
53748;DHT22;39655;53.210;5.768;2024-02-21T09:23:07;9.30;96.70
53748;DHT22;39655;53.210;5.768;2024-02-21T09:25:36;9.30;96.70
53748;DHT22;39655;53.210;5.768;2024-02-21T09:28:09;9.30;96.50
53748;DHT22;39655;53.210;5.768;2024-02-21T09:30:35;9.30;96.40
53748;DHT22;39655;53.210;5.768;2024-02-21T09:33:03;9.30;96.30
53748;DHT22;39655;53.210;5.768;2024-02-21T09:35:35;9.40;96.10
53748;DHT22;39655;53.210;5.768;2024-02-21T09:38:04;9.40;96.20
53748;DHT22;39655;53.210;5.768;2024-02-21T09:40:30;9.50;96.00
53748;DHT22;39655;53.210;5.768;2024-02-21T09:43:04;9.60;95.80
53748;DHT22;39655;53.210;5.768;2024-02-21T09:45:35;9.60;95.60
53748;DHT22;39655;53.210;5.768;2024-02-21T09:51:21;9.70;95.20
53748;DHT22;39655;53.210;5.768;2024-02-21T09:53:47;9.70;95.20
53748;DHT22;39655;53.210;5.768;2024-02-21T09:56:17;9.80;94.80
53748;DHT22;39655;53.210;5.768;2024-02-21T09:58:42;9.70;94.60
53748;DHT22;39655;53.210;5.768;2024-02-21T10:01:08;9.70;94.50
53748;DHT22;39655;53.210;5.768;2024-02-21T10:03:34;9.70;94.20
53748;DHT22;39655;53.210;5.768;2024-02-21T10:06:02;9.70;94.00
53748;DHT22;39655;53.210;5.768;2024-02-21T10:08:32;9.70;94.10
53748;DHT22;39655;53.210;5.768;2024-02-21T10:11:00;9.70;94.20
53748;DHT22;39655;53.210;5.768;2024-02-21T10:13:30;9.70;94.20
53748;DHT22;39655;53.210;5.768;2024-02-21T10:16:16;9.80;93.90
53748;DHT22;39655;53.210;5.768;2024-02-21T10:18:42;9.90;93.80
53748;DHT22;39655;53.210;5.768;2024-02-21T10:21:08;9.90;93.40
53748;DHT22;39655;53.210;5.768;2024-02-21T10:23:43;9.90;93.10
53748;DHT22;39655;53.210;5.768;2024-02-21T10:26:09;10.00;93.20
53748;DHT22;39655;53.210;5.768;2024-02-21T10:28:36;10.10;93.10
53748;DHT22;39655;53.210;5.768;2024-02-21T10:31:02;10.10;92.90
53748;DHT22;39655;53.210;5.768;2024-02-21T10:33:27;10.00;92.50
53748;DHT22;39655;53.210;5.768;2024-02-21T10:35:54;10.00;92.50
53748;DHT22;39655;53.210;5.768;2024-02-21T10:38:19;10.00;92.50
53748;DHT22;39655;53.210;5.768;2024-02-21T10:40:46;10.00;92.10
53748;DHT22;39655;53.210;5.768;2024-02-21T10:43:14;10.10;92.20
53748;DHT22;39655;53.210;5.768;2024-02-21T10:45:41;10.10;92.20
53748;DHT22;39655;53.210;5.768;2024-02-21T10:48:15;10.10;92.10
53748;DHT22;39655;53.210;5.768;2024-02-21T10:51:03;10.10;91.80
53748;DHT22;39655;53.210;5.768;2024-02-21T10:56:34;10.00;91.60
53748;DHT22;39655;53.210;5.768;2024-02-21T10:59:05;9.90;91.50
53748;DHT22;39655;53.210;5.768;2024-02-21T11:01:31;9.90;91.50
53748;DHT22;39655;53.210;5.768;2024-02-21T11:04:01;9.90;91.60
53748;DHT22;39655;53.210;5.768;2024-02-21T11:06:27;9.80;91.50
53748;DHT22;39655;53.210;5.768;2024-02-21T11:09:04;9.80;91.60
53748;DHT22;39655;53.210;5.768;2024-02-21T11:11:37;9.80;91.80
53748;DHT22;39655;53.210;5.768;2024-02-21T11:14:07;9.80;91.80
53748;DHT22;39655;53.210;5.768;2024-02-21T11:16:40;9.80;91.90
53748;DHT22;39655;53.210;5.768;2024-02-21T11:21:35;9.80;92.00
53748;DHT22;39655;53.210;5.768;2024-02-21T11:24:02;9.80;92.10
53748;DHT22;39655;53.210;5.768;2024-02-21T11:26:29;9.90;92.20
53748;DHT22;39655;53.210;5.768;2024-02-21T11:29:01;9.90;92.10
53748;DHT22;39655;53.210;5.768;2024-02-21T11:31:39;9.90;92.20
53748;DHT22;39655;53.210;5.768;2024-02-21T11:34:09;9.90;92.10
53748;DHT22;39655;53.210;5.768;2024-02-21T11:36:35;9.90;91.80
53748;DHT22;39655;53.210;5.768;2024-02-21T11:39:04;9.90;92.00
53748;DHT22;39655;53.210;5.768;2024-02-21T11:41:30;9.90;91.50
53748;DHT22;39655;53.210;5.768;2024-02-21T11:43:55;9.80;91.60
53748;DHT22;39655;53.210;5.768;2024-02-21T11:46:21;9.80;91.50
53748;DHT22;39655;53.210;5.768;2024-02-21T11:48:49;9.80;91.40
53748;DHT22;39655;53.210;5.768;2024-02-21T11:51:25;9.80;91.50
53748;DHT22;39655;53.210;5.768;2024-02-21T11:53:52;9.80;91.60
53748;DHT22;39655;53.210;5.768;2024-02-21T11:56:18;9.70;91.60
53748;DHT22;39655;53.210;5.768;2024-02-21T11:58:46;9.80;91.50
53748;DHT22;39655;53.210;5.768;2024-02-21T12:01:13;9.80;91.50
53748;DHT22;39655;53.210;5.768;2024-02-21T12:03:39;9.90;91.50
53748;DHT22;39655;53.210;5.768;2024-02-21T12:06:07;9.90;91.60
53748;DHT22;39655;53.210;5.768;2024-02-21T12:08:45;9.90;91.50
53748;DHT22;39655;53.210;5.768;2024-02-21T12:11:24;9.90;91.40
53748;DHT22;39655;53.210;5.768;2024-02-21T12:14:03;9.90;91.30
53748;DHT22;39655;53.210;5.768;2024-02-21T12:16:31;9.90;91.00
53748;DHT22;39655;53.210;5.768;2024-02-21T12:18:57;10.00;90.80
53748;DHT22;39655;53.210;5.768;2024-02-21T12:21:27;9.90;90.80
53748;DHT22;39655;53.210;5.768;2024-02-21T12:23:55;10.00;90.50
53748;DHT22;39655;53.210;5.768;2024-02-21T12:26:21;9.90;90.40
53748;DHT22;39655;53.210;5.768;2024-02-21T12:28:47;9.90;90.30
53748;DHT22;39655;53.210;5.768;2024-02-21T12:31:13;9.90;90.30
53748;DHT22;39655;53.210;5.768;2024-02-21T12:33:39;9.90;90.40
53748;DHT22;39655;53.210;5.768;2024-02-21T12:36:05;9.90;90.60
53748;DHT22;39655;53.210;5.768;2024-02-21T12:38:30;9.90;90.50
53748;DHT22;39655;53.210;5.768;2024-02-21T12:40:56;9.90;90.60
53748;DHT22;39655;53.210;5.768;2024-02-21T12:43:26;9.90;90.70
53748;DHT22;39655;53.210;5.768;2024-02-21T12:45:51;9.90;90.50
53748;DHT22;39655;53.210;5.768;2024-02-21T12:48:17;9.90;90.50
53748;DHT22;39655;53.210;5.768;2024-02-21T12:50:49;9.90;90.40
53748;DHT22;39655;53.210;5.768;2024-02-21T12:53:19;9.90;90.20
53748;DHT22;39655;53.210;5.768;2024-02-21T12:55:49;10.00;89.90
53748;DHT22;39655;53.210;5.768;2024-02-21T12:58:15;10.00;89.80
53748;DHT22;39655;53.210;5.768;2024-02-21T13:00:41;10.10;89.70
53748;DHT22;39655;53.210;5.768;2024-02-21T13:03:07;10.10;89.60
53748;DHT22;39655;53.210;5.768;2024-02-21T13:05:35;10.20;89.20
53748;DHT22;39655;53.210;5.768;2024-02-21T13:08:01;10.20;88.70
53748;DHT22;39655;53.210;5.768;2024-02-21T13:10:27;10.20;88.70
53748;DHT22;39655;53.210;5.768;2024-02-21T13:12:52;10.20;89.10
53748;DHT22;39655;53.210;5.768;2024-02-21T13:15:19;10.20;88.80
53748;DHT22;39655;53.210;5.768;2024-02-21T13:17:45;10.20;88.40
53748;DHT22;39655;53.210;5.768;2024-02-21T13:20:11;10.20;88.40
53748;DHT22;39655;53.210;5.768;2024-02-21T13:22:37;10.20;88.50
53748;DHT22;39655;53.210;5.768;2024-02-21T13:25:04;10.20;88.40
53748;DHT22;39655;53.210;5.768;2024-02-21T13:27:30;10.20;88.50
53748;DHT22;39655;53.210;5.768;2024-02-21T13:29:55;10.20;88.40
53748;DHT22;39655;53.210;5.768;2024-02-21T13:32:21;10.10;88.80
53748;DHT22;39655;53.210;5.768;2024-02-21T13:34:47;10.10;88.70
53748;DHT22;39655;53.210;5.768;2024-02-21T13:37:12;10.10;88.80
53748;DHT22;39655;53.210;5.768;2024-02-21T13:39:39;10.10;88.90
53748;DHT22;39655;53.210;5.768;2024-02-21T13:42:06;10.10;89.00
53748;DHT22;39655;53.210;5.768;2024-02-21T13:44:32;10.00;89.30
53748;DHT22;39655;53.210;5.768;2024-02-21T13:46:57;10.00;89.20
53748;DHT22;39655;53.210;5.768;2024-02-21T13:49:23;10.10;88.80
53748;DHT22;39655;53.210;5.768;2024-02-21T13:51:49;10.00;88.50
53748;DHT22;39655;53.210;5.768;2024-02-21T13:54:14;10.10;88.40
53748;DHT22;39655;53.210;5.768;2024-02-21T13:56:42;10.00;88.40
53748;DHT22;39655;53.210;5.768;2024-02-21T13:59:08;10.00;88.40
53748;DHT22;39655;53.210;5.768;2024-02-21T14:01:34;10.00;88.40
53748;DHT22;39655;53.210;5.768;2024-02-21T14:04:01;10.00;88.70
53748;DHT22;39655;53.210;5.768;2024-02-21T14:06:27;10.00;88.80
53748;DHT22;39655;53.210;5.768;2024-02-21T14:08:53;10.00;88.80
53748;DHT22;39655;53.210;5.768;2024-02-21T14:11:18;9.90;89.00
53748;DHT22;39655;53.210;5.768;2024-02-21T14:13:44;9.90;88.90
53748;DHT22;39655;53.210;5.768;2024-02-21T14:16:11;9.90;88.90
53748;DHT22;39655;53.210;5.768;2024-02-21T14:18:39;9.90;88.70
53748;DHT22;39655;53.210;5.768;2024-02-21T14:21:06;9.90;88.60
53748;DHT22;39655;53.210;5.768;2024-02-21T14:23:32;9.80;88.80
53748;DHT22;39655;53.210;5.768;2024-02-21T14:25:59;9.80;88.60
53748;DHT22;39655;53.210;5.768;2024-02-21T14:28:24;9.80;88.70
53748;DHT22;39655;53.210;5.768;2024-02-21T14:30:50;9.80;88.70
53748;DHT22;39655;53.210;5.768;2024-02-21T14:33:19;9.70;88.60
53748;DHT22;39655;53.210;5.768;2024-02-21T14:35:44;9.70;88.60
53748;DHT22;39655;53.210;5.768;2024-02-21T14:38:10;9.70;88.40
53748;DHT22;39655;53.210;5.768;2024-02-21T14:40:38;9.70;88.40
53748;DHT22;39655;53.210;5.768;2024-02-21T14:43:06;9.70;88.70
53748;DHT22;39655;53.210;5.768;2024-02-21T14:45:32;9.70;88.80
53748;DHT22;39655;53.210;5.768;2024-02-21T14:47:58;9.70;88.80
53748;DHT22;39655;53.210;5.768;2024-02-21T14:50:23;9.70;89.00
53748;DHT22;39655;53.210;5.768;2024-02-21T14:52:49;9.70;89.20
53748;DHT22;39655;53.210;5.768;2024-02-21T14:55:15;9.70;89.40
53748;DHT22;39655;53.210;5.768;2024-02-21T14:57:41;9.70;89.60
53748;DHT22;39655;53.210;5.768;2024-02-21T15:00:08;9.70;89.60
53748;DHT22;39655;53.210;5.768;2024-02-21T15:02:35;9.70;89.80
53748;DHT22;39655;53.210;5.768;2024-02-21T15:05:01;9.60;89.90
53748;DHT22;39655;53.210;5.768;2024-02-21T15:07:26;9.60;89.90
53748;DHT22;39655;53.210;5.768;2024-02-21T15:09:52;9.70;89.70
53748;DHT22;39655;53.210;5.768;2024-02-21T15:12:18;9.70;89.60
53748;DHT22;39655;53.210;5.768;2024-02-21T15:14:44;9.70;89.70
53748;DHT22;39655;53.210;5.768;2024-02-21T15:17:11;9.70;89.40
53748;DHT22;39655;53.210;5.768;2024-02-21T15:19:36;9.70;89.60
53748;DHT22;39655;53.210;5.768;2024-02-21T15:22:04;9.70;89.70
53748;DHT22;39655;53.210;5.768;2024-02-21T15:24:30;9.70;89.90
53748;DHT22;39655;53.210;5.768;2024-02-21T15:26:55;9.70;90.00
53748;DHT22;39655;53.210;5.768;2024-02-21T15:29:21;9.60;90.30
53748;DHT22;39655;53.210;5.768;2024-02-21T15:31:49;9.60;90.60
53748;DHT22;39655;53.210;5.768;2024-02-21T15:34:14;9.50;90.80
53748;DHT22;39655;53.210;5.768;2024-02-21T15:36:43;9.40;91.20
53748;DHT22;39655;53.210;5.768;2024-02-21T15:39:08;9.40;91.40
53748;DHT22;39655;53.210;5.768;2024-02-21T15:41:36;9.40;91.70
53748;DHT22;39655;53.210;5.768;2024-02-21T15:44:02;9.30;91.70
53748;DHT22;39655;53.210;5.768;2024-02-21T15:46:29;9.40;92.00
53748;DHT22;39655;53.210;5.768;2024-02-21T15:48:56;9.30;92.00
53748;DHT22;39655;53.210;5.768;2024-02-21T15:51:25;9.20;92.20